Latest Weather Observations for Horsley Park

IDN60801

Issued at 6:05 am EST Saturday 26 July 2014 (issued every 30 minutes, with the page automatically refreshed every 10 minutes)

About weather observations | Map of weather stations | Latest weather observations for NSW | Other Formats
Station Details ID: 067119 Name: HORSLEY PARK EQUESTRIAN CENTRE AWS Lat: -33.85 Lon: 150.86 Height: 100.0 m
Data from the previous 72 hours. | See also: Recent months at Horsley Park
Date/Time
EST
Temp
°C
App
Temp
°C
Dew
Point
Rel
Hum
%
Delta-T
°C
Wind Press
QNH
hPa
Press
MSL
hPa
Rain
since 9 am
mm
Dir
 
Spd
km/h
Gust
km/h
Spd
kts
Gust
kts
26/06:00am 10.7 10.6 9.6 93 0.6 NW 0 0 0 0 - - 1.2
26/05:30am 10.9 10.8 9.3 90 0.8 N 0 0 0 0 - - 1.2
26/05:00am 11.6 11.5 9.3 86 1.2 CALM 0 0 0 0 - - 1.0
26/04:30am 11.8 11.6 9.0 83 1.4 CALM 0 0 0 0 - - 1.0
26/04:00am 12.3 11.4 9.1 81 1.6 NNW 4 9 2 5 - - 1.0
26/03:30am 12.4 11.3 10.1 86 1.2 WSW 6 9 3 5 - - 1.0
26/03:00am 11.0 10.9 9.3 89 0.9 CALM 0 4 0 2 - - 1.0
26/02:30am 11.2 11.0 8.9 86 1.1 CALM 0 2 0 1 - - 1.0
26/02:00am 11.9 10.9 8.7 81 1.6 N 4 7 2 4 - - 1.0
26/01:30am 12.9 12.4 9.5 80 1.7 NNW 2 6 1 3 - - 1.0
26/01:00am 13.3 13.2 9.4 77 2.0 CALM 0 0 0 0 - - 1.0
26/12:30am 13.8 13.0 9.6 76 2.2 NNW 4 7 2 4 - - 1.0
26/12:00am 14.3 13.5 9.7 74 2.4 NNW 4 7 2 4 - - 1.0
 
Date/Time
EST
Temp
°C
App
Temp
°C
Dew
Point
Rel
Hum
%
Delta-T
°C
Wind Press
QNH
hPa
Press
MSL
hPa
Rain
since 9 am
mm
Dir
 
Spd
km/h
Gust
km/h
Spd
kts
Gust
kts
25/11:30pm 14.4 13.2 9.6 73 2.5 N 6 7 3 4 - - 1.0
25/11:00pm 14.9 13.7 9.7 71 2.7 N 6 9 3 5 - - 1.0
25/10:30pm 15.1 13.7 9.7 70 2.8 N 7 13 4 7 - - 1.0
25/10:00pm 15.6 13.9 9.7 68 3.1 N 9 13 5 7 - - 1.0
25/09:30pm 15.6 14.2 9.5 67 3.2 NW 7 11 4 6 - - 1.0
25/09:00pm 15.9 14.2 9.8 67 3.2 N 9 15 5 8 - - 1.0
25/08:30pm 15.9 14.1 9.6 66 3.3 N 9 15 5 8 - - 1.0
25/08:00pm 16.4 14.6 9.3 63 3.7 N 9 19 5 10 - - 1.0
25/07:30pm 17.1 14.8 9.0 59 4.2 N 11 20 6 11 - - 1.0
25/07:00pm 17.5 15.3 9.2 58 4.3 NNW 11 20 6 11 - - 1.0
25/06:30pm 17.4 15.6 9.3 59 4.2 N 9 15 5 8 - - 1.0
25/06:00pm 17.8 15.6 9.4 58 4.4 N 11 22 6 12 - - 1.0
25/05:30pm 18.1 15.9 9.5 57 4.5 N 11 19 6 10 - - 1.0
25/05:00pm 18.4 15.0 9.2 55 4.8 N 17 30 9 16 - - 1.0
25/04:30pm 19.2 15.9 9.4 53 5.2 N 17 28 9 15 - - 1.0
25/04:00pm 19.1 15.7 9.3 53 5.2 N 17 30 9 16 - - 1.0
25/03:30pm 19.4 15.4 9.0 51 5.5 N 20 33 11 18 - - 1.0
25/03:00pm 19.7 16.3 9.3 51 5.5 N 17 26 9 14 - - 1.0
25/02:30pm 20.7 16.5 9.6 49 6.0 N 22 35 12 19 - - 1.0
25/02:00pm 20.4 16.6 9.9 51 5.7 N 20 37 11 20 - - 1.0
25/01:30pm 19.8 16.8 10.5 55 5.1 N 17 30 9 16 - - 1.0
25/01:00pm 18.0 16.3 11.1 64 3.8 N 11 19 6 10 - - 1.0
25/12:30pm 16.4 15.4 11.1 71 2.9 N 7 13 4 7 - - 1.0
25/12:00pm 14.6 14.2 11.2 80 1.8 NNE 4 7 2 4 - - 1.0
25/11:30am 12.4 12.8 11.1 92 0.7 CALM 0 0 0 0 - - 1.0
25/11:00am 11.5 11.1 9.8 89 0.9 E 2 7 1 4 - - 1.0
25/10:30am 10.8 10.3 9.2 90 0.8 NNE 2 6 1 3 - - 1.0
25/10:00am 10.1 9.5 8.9 92 0.6 NNE 2 4 1 2 - - 0.4
25/09:30am 9.8 8.2 8.7 93 0.5 WNW 7 15 4 8 - - 0.2
25/09:00am 8.8 8.4 8.2 96 0.3 CALM 0 4 0 2 - - 0.4
25/08:30am 8.4 7.9 8.0 97 0.2 CALM 0 0 0 0 - - 0.2
25/08:00am 8.2 6.4 7.9 98 0.1 WSW 7 19 4 10 - - 0.0
25/07:30am 7.8 6.5 7.5 98 0.1 W 4 7 2 4 - - 0.0
25/07:00am 6.7 5.1 6.3 97 0.2 WNW 4 7 2 4 - - 0.0
25/06:30am 6.8 5.2 6.4 97 0.2 WNW 4 6 2 3 - - 0.0
25/06:00am 6.6 5.3 6.0 96 0.3 W 2 4 1 2 - - 0.0
25/05:30am 6.8 5.9 6.1 95 0.3 CALM 0 4 0 2 - - 0.0
25/05:00am 7.5 6.0 6.9 96 0.3 W 4 6 2 3 - - 0.0
25/04:30am 7.9 6.9 7.5 97 0.2 W 2 4 1 2 - - 0.0
25/04:00am 7.4 6.3 6.8 96 0.3 W 2 4 1 2 - - 0.0
25/03:30am 7.7 7.0 7.1 96 0.3 CALM 0 4 0 2 - - 0.0
25/03:00am 7.7 7.0 7.0 95 0.3 CALM 0 0 0 0 - - 0.0
25/02:30am 8.2 7.1 7.1 93 0.5 W 2 4 1 2 - - 0.0
25/02:00am 8.6 7.2 7.4 92 0.6 W 4 6 2 3 - - 0.0
25/01:30am 9.1 8.2 7.7 91 0.7 W 2 4 1 2 - - 0.0
25/01:00am 9.3 7.6 7.7 90 0.8 W 6 9 3 5 - - 0.0
25/12:30am 9.6 9.1 8.0 90 0.8 CALM 0 0 0 0 - - 0.0
25/12:00am 9.9 9.5 8.3 90 0.8 CALM 0 0 0 0 - - 0.0
 
Date/Time
EST
Temp
°C
App
Temp
°C
Dew
Point
Rel
Hum
%
Delta-T
°C
Wind Press
QNH
hPa
Press
MSL
hPa
Rain
since 9 am
mm
Dir
 
Spd
km/h
Gust
km/h
Spd
kts
Gust
kts
24/11:30pm 9.8 9.4 8.4 91 0.7 CALM 0 0 0 0 - - 0.0
24/11:00pm 9.9 9.5 8.2 89 0.8 CALM 0 0 0 0 - - 0.0
24/10:30pm 10.7 9.6 8.3 85 1.2 N 4 4 2 2 - - 0.0
24/10:00pm 11.0 10.6 8.2 83 1.4 CALM 0 0 0 0 - - 0.0
24/09:30pm 11.6 11.1 7.9 78 1.8 CALM 0 0 0 0 - - 0.0
24/09:00pm 12.2 11.1 8.3 77 1.9 N 4 6 2 3 - - 0.0
24/08:30pm 12.9 11.4 8.4 74 2.2 N 6 7 3 4 - - 0.0
24/08:00pm 12.8 11.3 8.5 75 2.2 N 6 7 3 4 - - 0.0
24/07:30pm 13.0 11.4 8.1 72 2.4 N 6 7 3 4 - - 0.0
24/07:00pm 13.2 11.6 7.9 70 2.6 N 6 9 3 5 - - 0.0
24/06:30pm 13.6 12.3 7.8 68 2.9 N 4 7 2 4 - - 0.0
24/06:00pm 14.4 13.2 7.9 65 3.2 N 4 7 2 4 - - 0.0
24/05:30pm 14.8 14.0 8.1 64 3.4 N 2 7 1 4 - - 0.0
24/05:00pm 15.3 14.2 8.5 64 3.5 N 4 7 2 4 - - 0.0
24/04:30pm 15.3 14.2 8.5 64 3.5 N 4 7 2 4 - - 0.0
24/04:00pm 15.5 14.4 8.5 63 3.6 N 4 7 2 4 - - 0.0
24/03:30pm 15.4 13.7 8.2 62 3.6 N 7 13 4 7 - - 0.0
24/03:00pm 15.8 13.5 7.6 58 4.1 N 9 13 5 7 - - 0.0
24/02:30pm 17.0 15.3 8.4 57 4.4 N 7 11 4 6 - - 0.0
24/02:00pm 15.0 13.6 8.7 66 3.2 N 6 9 3 5 - - 0.0
24/01:30pm 14.2 12.2 8.8 70 2.7 N 9 15 5 8 - - 0.0
24/01:00pm 14.2 12.8 8.8 70 2.7 NNE 6 11 3 6 - - 0.0
24/12:30pm 13.5 12.8 8.4 71 2.6 N 2 6 1 3 - - 0.0
24/12:00pm 12.7 12.3 8.4 75 2.1 CALM 0 4 0 2 - - 0.0
24/11:30am 12.9 12.2 8.6 75 2.2 NW 2 6 1 3 - - 0.0
24/11:00am 12.7 12.1 8.8 77 2.0 NNW 2 6 1 3 - - 0.0
24/10:30am 10.9 10.2 8.5 85 1.2 WNW 2 4 1 2 - - 0.0
24/10:00am 10.1 8.9 8.0 87 1.0 NW 4 6 2 3 - - 0.0
24/09:30am 9.8 8.2 8.1 89 0.8 WNW 6 7 3 4 - - 0.0
24/09:00am 9.8 8.6 8.1 89 0.8 NNW 4 6 2 3 - - 0.0
24/08:30am 9.4 9.1 8.6 95 0.4 CALM 0 0 0 0 - - 0.0
24/08:00am 8.0 7.5 7.9 99 0.0 CALM 0 0 0 0 - - 0.0
24/07:30am 6.9 6.2 6.8 99 0.0 CALM 0 0 0 0 - - 0.0
24/07:00am 6.4 5.5 6.1 98 0.1 CALM 0 0 0 0 - - 0.0
24/06:30am 6.3 5.0 6.0 98 0.1 SSW 2 4 1 2 - - 0.0
24/06:00am 6.0 5.0 5.7 98 0.1 CALM 0 2 0 1 - - 0.0
24/05:30am 7.1 6.4 7.0 99 0.0 CALM 0 0 0 0 - - 0.0
24/05:00am 5.4 4.2 4.8 96 0.3 CALM 0 0 0 0 - - 0.0
24/04:30am 7.0 6.2 6.7 98 0.1 CALM 0 2 0 1 - - 0.0
24/04:00am 6.5 4.8 6.1 97 0.2 SW 4 6 2 3 - - 0.0
24/03:30am 6.8 6.0 6.4 97 0.2 CALM 0 0 0 0 - - 0.0
24/03:00am 6.5 5.6 5.9 96 0.3 CALM 0 0 0 0 - - 0.0
24/02:30am 7.0 6.2 6.4 96 0.3 CALM 0 0 0 0 - - 0.0
24/02:00am 6.9 6.0 6.2 95 0.3 CALM 0 0 0 0 - - 0.0
24/01:30am 7.8 7.0 6.7 93 0.5 CALM 0 0 0 0 - - 0.0
24/01:00am 8.7 8.2 7.9 95 0.4 CALM 0 0 0 0 - - 0.0
24/12:30am 8.9 8.4 8.0 94 0.4 CALM 0 0 0 0 - - 0.0
24/12:00am 8.8 8.3 7.9 94 0.4 CALM 0 0 0 0 - - 0.0
 
Date/Time
EST
Temp
°C
App
Temp
°C
Dew
Point
Rel
Hum
%
Delta-T
°C
Wind Press
QNH
hPa
Press
MSL
hPa
Rain
since 9 am
mm
Dir
 
Spd
km/h
Gust
km/h
Spd
kts
Gust
kts
23/11:30pm 9.0 8.5 7.9 93 0.5 CALM 0 0 0 0 - - 0.0
23/11:00pm 9.2 8.6 7.6 90 0.8 CALM 0 0 0 0 - - 0.0
23/10:30pm 9.3 8.8 7.9 91 0.7 CALM 0 0 0 0 - - 0.0
23/10:00pm 8.9 8.3 7.2 89 0.8 CALM 0 0 0 0 - - 0.0
23/09:30pm 9.6 8.7 7.7 88 0.9 WSW 2 4 1 2 - - 0.0
23/09:00pm 9.7 9.2 7.8 88 0.9 CALM 0 4 0 2 - - 0.0
23/08:30pm 11.0 10.6 8.1 82 1.4 CALM 0 0 0 0 - - 0.0
23/08:00pm 11.7 11.0 8.6 81 1.5 E 2 4 1 2 - - 0.0
23/07:30pm 11.6 10.4 8.1 79 1.7 E 4 6 2 3 - - 0.0
23/07:00pm 12.1 11.3 8.2 77 1.9 E 2 6 1 3 - - 0.0
23/06:30pm 12.6 11.5 8.3 75 2.1 E 4 7 2 4 - - 0.0
23/06:00pm 13.0 11.5 8.3 73 2.3 E 6 11 3 6 - - 0.0
23/05:30pm 13.5 11.7 7.9 69 2.8 E 7 11 4 6 - - 0.0
23/05:00pm 14.2 12.3 6.8 61 3.6 E 6 7 3 4 - - 0.0
23/04:30pm 15.2 13.7 6.7 57 4.2 ENE 4 7 2 4 - - 0.0
23/04:00pm 15.8 14.6 6.3 53 4.6 ENE 2 6 1 3 - - 0.0
23/03:30pm 16.8 15.0 5.4 47 5.5 NE 4 9 2 5 - - 0.0
23/03:00pm 17.4 15.4 6.3 48 5.5 ENE 6 11 3 6 - - 0.0
23/02:30pm 17.3 15.6 5.9 47 5.6 N 4 9 2 5 - - 0.0
23/02:00pm 17.2 15.2 6.1 48 5.5 NE 6 11 3 6 - - 0.0
23/01:30pm 17.5 16.5 7.3 51 5.1 NE 2 7 1 4 - - 0.0
23/01:00pm 16.2 14.8 7.2 55 4.5 NNE 4 9 2 5 - - 0.0
23/12:30pm 16.0 15.5 8.0 59 4.0 CALM 0 4 0 2 - - 0.0
23/12:00pm 15.5 13.6 6.5 55 4.4 NNW 6 11 3 6 - - 0.0
23/11:30am 16.1 15.5 7.3 56 4.4 CALM 0 6 0 3 - - 0.0
23/11:00am 15.6 14.9 8.6 63 3.6 NNE 2 6 1 3 - - 0.0
23/10:30am 14.3 13.2 8.3 67 3.0 W 4 7 2 4 - - 0.0
23/10:00am 13.0 11.8 8.1 72 2.4 W 4 7 2 4 - - 0.0
23/09:30am 11.9 10.8 8.6 80 1.6 W 4 7 2 4 - - 0.0
23/09:00am 10.9 9.4 8.5 85 1.2 W 6 7 3 4 - - 0.0
23/08:30am 10.4 9.9 9.2 92 0.6 SW 2 4 1 2 - - 0.0
23/08:00am 8.7 7.1 8.1 96 0.3 WSW 6 9 3 5 - - 0.0
23/07:30am 8.3 6.6 8.2 99 0.0 WSW 7 11 4 6 - - 0.0
23/07:00am 8.0 6.4 7.9 99 0.0 WSW 6 9 3 5 - - 0.0
23/06:30am 6.0 4.6 5.6 97 0.2 W 2 4 1 2 - - 0.0

Other Formats:

Comma delimited format used in spreadsheet applications
http://www.bom.gov.au/fwo/IDN60801/IDN60801.94760.axf

JavaScript Object Notation format (JSON) in row-major order
http://www.bom.gov.au/fwo/IDN60801/IDN60801.94760.json